sensor_id;sensor_type;location;lat;lon;timestamp;pressure;altitude;pressure_sealevel;temperature;humidity
22206;BME280;11272;50.104;8.754;2022-08-03T00:00:08;100523.28;;;23.75;42.51
22206;BME280;11272;50.104;8.754;2022-08-03T00:02:40;100533.72;;;23.69;43.05
22206;BME280;11272;50.104;8.754;2022-08-03T00:05:05;100531.00;;;23.69;43.02
22206;BME280;11272;50.104;8.754;2022-08-03T00:07:32;100530.78;;;23.72;42.91
22206;BME280;11272;50.104;8.754;2022-08-03T00:09:58;100531.97;;;23.68;42.83
22206;BME280;11272;50.104;8.754;2022-08-03T00:12:23;100524.28;;;23.62;43.08
22206;BME280;11272;50.104;8.754;2022-08-03T00:14:48;100527.13;;;23.60;43.28
22206;BME280;11272;50.104;8.754;2022-08-03T00:17:14;100518.88;;;23.62;43.34
22206;BME280;11272;50.104;8.754;2022-08-03T00:19:40;100524.78;;;23.56;43.38
22206;BME280;11272;50.104;8.754;2022-08-03T00:22:05;100529.00;;;23.47;43.65
22206;BME280;11272;50.104;8.754;2022-08-03T00:24:30;100524.66;;;23.44;43.64
22206;BME280;11272;50.104;8.754;2022-08-03T00:26:56;100518.25;;;23.45;43.84
22206;BME280;11272;50.104;8.754;2022-08-03T00:29:21;100520.97;;;23.45;43.71
22206;BME280;11272;50.104;8.754;2022-08-03T00:31:46;100522.38;;;23.38;43.88
22206;BME280;11272;50.104;8.754;2022-08-03T00:34:14;100518.28;;;23.33;44.08
22206;BME280;11272;50.104;8.754;2022-08-03T00:36:39;100522.50;;;23.24;44.33
22206;BME280;11272;50.104;8.754;2022-08-03T00:39:04;100521.09;;;23.19;44.41
22206;BME280;11272;50.104;8.754;2022-08-03T00:41:30;100523.72;;;23.20;44.54
22206;BME280;11272;50.104;8.754;2022-08-03T00:43:55;100518.53;;;23.17;44.71
22206;BME280;11272;50.104;8.754;2022-08-03T00:46:20;100518.72;;;23.14;44.92
22206;BME280;11272;50.104;8.754;2022-08-03T00:48:48;100523.94;;;23.17;44.71
22206;BME280;11272;50.104;8.754;2022-08-03T00:51:13;100527.63;;;23.16;44.82
22206;BME280;11272;50.104;8.754;2022-08-03T00:53:39;100518.19;;;23.09;44.91
22206;BME280;11272;50.104;8.754;2022-08-03T00:56:05;100523.63;;;23.09;44.69
22206;BME280;11272;50.104;8.754;2022-08-03T00:58:30;100524.38;;;23.11;44.92
22206;BME280;11272;50.104;8.754;2022-08-03T01:00:55;100522.75;;;23.08;44.97
22206;BME280;11272;50.104;8.754;2022-08-03T01:03:21;100523.50;;;22.98;45.26
22206;BME280;11272;50.104;8.754;2022-08-03T01:06:11;100524.41;;;22.86;45.38
22206;BME280;11272;50.104;8.754;2022-08-03T01:08:50;100512.91;;;22.82;45.52
22206;BME280;11272;50.104;8.754;2022-08-03T01:11:37;100514.56;;;22.85;45.71
22206;BME280;11272;50.104;8.754;2022-08-03T01:14:24;100505.56;;;22.84;45.55
22206;BME280;11272;50.104;8.754;2022-08-03T01:16:56;100504.44;;;22.87;45.55
22206;BME280;11272;50.104;8.754;2022-08-03T01:25:05;100502.94;;;22.83;45.82
22206;BME280;11272;50.104;8.754;2022-08-03T01:27:57;100505.66;;;22.83;45.80
22206;BME280;11272;50.104;8.754;2022-08-03T01:30:31;100502.94;;;22.83;45.75
22206;BME280;11272;50.104;8.754;2022-08-03T01:33:07;100511.31;;;22.80;45.99
22206;BME280;11272;50.104;8.754;2022-08-03T01:36:03;100515.22;;;22.76;45.95
22206;BME280;11272;50.104;8.754;2022-08-03T01:38:40;100508.91;;;22.75;45.94
22206;BME280;11272;50.104;8.754;2022-08-03T01:41:10;100507.28;;;22.73;46.02
22206;BME280;11272;50.104;8.754;2022-08-03T01:43:38;100503.72;;;22.72;46.12
22206;BME280;11272;50.104;8.754;2022-08-03T01:46:07;100501.28;;;22.67;46.27
22206;BME280;11272;50.104;8.754;2022-08-03T01:48:37;100514.28;;;22.62;46.54
22206;BME280;11272;50.104;8.754;2022-08-03T01:51:05;100507.22;;;22.60;46.69
22206;BME280;11272;50.104;8.754;2022-08-03T01:53:32;100506.41;;;22.59;47.12
22206;BME280;11272;50.104;8.754;2022-08-03T01:55:59;100509.19;;;22.58;46.83
22206;BME280;11272;50.104;8.754;2022-08-03T01:58:28;100515.34;;;22.60;47.20
22206;BME280;11272;50.104;8.754;2022-08-03T02:00:55;100512.66;;;22.60;46.93
22206;BME280;11272;50.104;8.754;2022-08-03T02:03:26;100509.09;;;22.59;46.95
22206;BME280;11272;50.104;8.754;2022-08-03T02:05:53;100506.50;;;22.58;46.74
22206;BME280;11272;50.104;8.754;2022-08-03T02:08:21;100502.47;;;22.51;47.19
22206;BME280;11272;50.104;8.754;2022-08-03T02:10:48;100501.06;;;22.45;47.48
22206;BME280;11272;50.104;8.754;2022-08-03T02:13:16;100501.38;;;22.41;47.59
22206;BME280;11272;50.104;8.754;2022-08-03T02:15:43;100501.28;;;22.42;47.69
22206;BME280;11272;50.104;8.754;2022-08-03T02:18:10;100502.25;;;22.41;47.74
22206;BME280;11272;50.104;8.754;2022-08-03T02:20:37;100502.47;;;22.38;48.21
22206;BME280;11272;50.104;8.754;2022-08-03T02:23:04;100504.41;;;22.36;48.20
22206;BME280;11272;50.104;8.754;2022-08-03T02:25:33;100507.31;;;22.33;48.34
22206;BME280;11272;50.104;8.754;2022-08-03T02:28:27;100513.91;;;22.29;48.60
22206;BME280;11272;50.104;8.754;2022-08-03T02:30:54;100512.31;;;22.27;48.73
22206;BME280;11272;50.104;8.754;2022-08-03T02:33:34;100505.47;;;22.21;48.92
22206;BME280;11272;50.104;8.754;2022-08-03T02:36:00;100508.38;;;22.18;48.88
22206;BME280;11272;50.104;8.754;2022-08-03T02:38:30;100500.47;;;22.15;49.11
22206;BME280;11272;50.104;8.754;2022-08-03T02:40:57;100506.94;;;22.12;49.10
22206;BME280;11272;50.104;8.754;2022-08-03T02:43:24;100511.69;;;22.09;49.18
22206;BME280;11272;50.104;8.754;2022-08-03T02:45:50;100502.81;;;22.07;49.38
22206;BME280;11272;50.104;8.754;2022-08-03T02:48:22;100510.19;;;22.05;49.50
22206;BME280;11272;50.104;8.754;2022-08-03T02:50:54;100505.84;;;22.02;49.68
22206;BME280;11272;50.104;8.754;2022-08-03T02:53:22;100499.78;;;21.99;49.86
22206;BME280;11272;50.104;8.754;2022-08-03T02:55:49;100500.84;;;21.96;49.97
22206;BME280;11272;50.104;8.754;2022-08-03T02:58:20;100500.16;;;21.93;50.00
22206;BME280;11272;50.104;8.754;2022-08-03T03:00:48;100501.25;;;21.90;50.00
22206;BME280;11272;50.104;8.754;2022-08-03T03:03:16;100497.84;;;21.87;50.21
22206;BME280;11272;50.104;8.754;2022-08-03T03:05:43;100499.81;;;21.84;50.40
22206;BME280;11272;50.104;8.754;2022-08-03T03:08:12;100493.72;;;21.81;50.71
22206;BME280;11272;50.104;8.754;2022-08-03T03:10:38;100496.66;;;21.78;50.64
22206;BME280;11272;50.104;8.754;2022-08-03T03:13:04;100505.06;;;21.73;50.81
22206;BME280;11272;50.104;8.754;2022-08-03T03:15:31;100496.19;;;21.71;50.80
22206;BME280;11272;50.104;8.754;2022-08-03T03:18:00;100497.16;;;21.70;50.83
22206;BME280;11272;50.104;8.754;2022-08-03T03:20:27;100501.81;;;21.68;50.79
22206;BME280;11272;50.104;8.754;2022-08-03T03:22:53;100501.03;;;21.66;50.87
22206;BME280;11272;50.104;8.754;2022-08-03T03:25:20;100495.84;;;21.63;50.99
22206;BME280;11272;50.104;8.754;2022-08-03T03:27:47;100509.34;;;21.63;50.88
22206;BME280;11272;50.104;8.754;2022-08-03T03:30:13;100506.06;;;21.58;50.94
22206;BME280;11272;50.104;8.754;2022-08-03T03:32:39;100508.09;;;21.55;51.04
22206;BME280;11272;50.104;8.754;2022-08-03T03:35:05;100504.53;;;21.54;51.00
22206;BME280;11272;50.104;8.754;2022-08-03T03:37:31;100510.25;;;21.50;50.95
22206;BME280;11272;50.104;8.754;2022-08-03T03:39:56;100504.94;;;21.48;51.26
22206;BME280;11272;50.104;8.754;2022-08-03T03:42:22;100513.16;;;21.47;51.07
22206;BME280;11272;50.104;8.754;2022-08-03T03:44:49;100508.63;;;21.47;51.05
22206;BME280;11272;50.104;8.754;2022-08-03T03:47:14;100513.16;;;21.47;50.83
22206;BME280;11272;50.104;8.754;2022-08-03T03:49:40;100503.22;;;21.47;51.11
22206;BME280;11272;50.104;8.754;2022-08-03T03:52:07;100512.47;;;21.43;51.21
22206;BME280;11272;50.104;8.754;2022-08-03T03:54:40;100503.59;;;21.41;51.24
22206;BME280;11272;50.104;8.754;2022-08-03T03:57:06;100509.66;;;21.45;50.93
22206;BME280;11272;50.104;8.754;2022-08-03T03:59:31;100509.66;;;21.45;51.14
22206;BME280;11272;50.104;8.754;2022-08-03T04:01:57;100503.41;;;21.44;51.13
22206;BME280;11272;50.104;8.754;2022-08-03T04:04:22;100510.75;;;21.42;51.07
22206;BME280;11272;50.104;8.754;2022-08-03T04:07:06;100509.00;;;21.41;51.09
22206;BME280;11272;50.104;8.754;2022-08-03T04:09:50;100509.00;;;21.41;51.05
22206;BME280;11272;50.104;8.754;2022-08-03T04:12:35;100504.47;;;21.41;51.02
22206;BME280;11272;50.104;8.754;2022-08-03T04:15:03;100499.94;;;21.42;51.23
22206;BME280;11272;50.104;8.754;2022-08-03T04:17:29;100498.22;;;21.41;51.02
22206;BME280;11272;50.104;8.754;2022-08-03T04:19:58;100503.59;;;21.41;50.99
22206;BME280;11272;50.104;8.754;2022-08-03T04:22:27;100494.72;;;21.39;51.00
22206;BME280;11272;50.104;8.754;2022-08-03T04:25:05;100507.47;;;21.37;51.14
22206;BME280;11272;50.104;8.754;2022-08-03T04:27:36;100502.84;;;21.39;51.11
22206;BME280;11272;50.104;8.754;2022-08-03T04:30:05;100504.56;;;21.40;51.19
22206;BME280;11272;50.104;8.754;2022-08-03T04:32:31;100505.44;;;21.40;51.13
22206;BME280;11272;50.104;8.754;2022-08-03T04:34:57;100517.00;;;21.42;51.22
22206;BME280;11272;50.104;8.754;2022-08-03T04:40:02;100504.19;;;21.46;51.33
22206;BME280;11272;50.104;8.754;2022-08-03T04:42:32;100504.94;;;21.48;51.39
22206;BME280;11272;50.104;8.754;2022-08-03T04:44:58;100519.22;;;21.50;51.29
22206;BME280;11272;50.104;8.754;2022-08-03T04:47:23;100519.22;;;21.50;51.29
22206;BME280;11272;50.104;8.754;2022-08-03T04:49:49;100519.22;;;21.50;51.08
22206;BME280;11272;50.104;8.754;2022-08-03T04:52:15;100517.47;;;21.49;51.08
22206;BME280;11272;50.104;8.754;2022-08-03T04:54:42;100521.13;;;21.48;51.07
22206;BME280;11272;50.104;8.754;2022-08-03T04:57:09;100522.00;;;21.49;50.96
22206;BME280;11272;50.104;8.754;2022-08-03T04:59:35;100521.81;;;21.52;50.87
22206;BME280;11272;50.104;8.754;2022-08-03T05:02:00;100527.88;;;21.55;50.89
22206;BME280;11272;50.104;8.754;2022-08-03T05:04:25;100526.63;;;21.61;50.69
22206;BME280;11272;50.104;8.754;2022-08-03T05:06:51;100534.25;;;21.68;50.67
22206;BME280;11272;50.104;8.754;2022-08-03T05:09:16;100532.09;;;21.73;50.51
22206;BME280;11272;50.104;8.754;2022-08-03T05:11:41;100535.25;;;21.80;50.38
22206;BME280;11272;50.104;8.754;2022-08-03T05:14:07;100539.09;;;21.90;50.18
22206;BME280;11272;50.104;8.754;2022-08-03T05:16:32;100540.91;;;22.04;50.00
22206;BME280;11272;50.104;8.754;2022-08-03T05:18:57;100536.50;;;22.15;49.62
22206;BME280;11272;50.104;8.754;2022-08-03T05:21:23;100541.75;;;22.31;49.46
22206;BME280;11272;50.104;8.754;2022-08-03T05:23:48;100531.06;;;22.42;49.06
22206;BME280;11272;50.104;8.754;2022-08-03T05:26:14;100540.81;;;22.57;48.94
22206;BME280;11272;50.104;8.754;2022-08-03T05:28:39;100542.59;;;22.71;48.74
22206;BME280;11272;50.104;8.754;2022-08-03T05:31:05;100545.31;;;22.84;48.72
22206;BME280;11272;50.104;8.754;2022-08-03T05:33:30;100532.31;;;23.01;48.27
22206;BME280;11272;50.104;8.754;2022-08-03T05:35:55;100538.38;;;23.18;48.34
22206;BME280;11272;50.104;8.754;2022-08-03T05:38:21;100534.53;;;23.33;47.86
22206;BME280;11272;50.104;8.754;2022-08-03T05:40:46;100538.63;;;23.51;47.96
22206;BME280;11272;50.104;8.754;2022-08-03T05:43:12;100537.28;;;23.69;47.14
22206;BME280;11272;50.104;8.754;2022-08-03T05:45:38;100528.53;;;23.89;47.00
22206;BME280;11272;50.104;8.754;2022-08-03T05:48:04;100538.63;;;24.11;46.77
22206;BME280;11272;50.104;8.754;2022-08-03T05:50:30;100535.28;;;24.31;46.36
22206;BME280;11272;50.104;8.754;2022-08-03T05:52:55;100543.00;;;24.49;45.79
22206;BME280;11272;50.104;8.754;2022-08-03T05:55:24;100544.31;;;24.67;45.36
22206;BME280;11272;50.104;8.754;2022-08-03T05:57:49;100537.41;;;24.85;45.06
22206;BME280;11272;50.104;8.754;2022-08-03T06:00:15;100536.97;;;25.02;44.62
22206;BME280;11272;50.104;8.754;2022-08-03T06:02:41;100542.66;;;25.22;44.16
22206;BME280;11272;50.104;8.754;2022-08-03T06:05:07;100544.75;;;25.40;43.93
22206;BME280;11272;50.104;8.754;2022-08-03T06:07:33;100540.44;;;25.60;43.36
22206;BME280;11272;50.104;8.754;2022-08-03T06:09:59;100544.25;;;25.80;42.96
22206;BME280;11272;50.104;8.754;2022-08-03T06:12:26;100538.13;;;25.98;42.55
22206;BME280;11272;50.104;8.754;2022-08-03T06:14:52;100548.00;;;26.11;42.05
22206;BME280;11272;50.104;8.754;2022-08-03T06:17:17;100542.50;;;26.22;41.93
22206;BME280;11272;50.104;8.754;2022-08-03T06:19:43;100549.41;;;26.37;41.58
22206;BME280;11272;50.104;8.754;2022-08-03T06:22:09;100547.56;;;26.58;41.00
22206;BME280;11272;50.104;8.754;2022-08-03T06:24:34;100543.97;;;26.78;40.79
22206;BME280;11272;50.104;8.754;2022-08-03T06:27:00;100541.00;;;27.02;40.64
22206;BME280;11272;50.104;8.754;2022-08-03T06:29:25;100541.41;;;27.28;40.46
22206;BME280;11272;50.104;8.754;2022-08-03T06:31:50;100532.28;;;27.48;39.85
22206;BME280;11272;50.104;8.754;2022-08-03T06:34:16;100526.63;;;27.71;39.16
22206;BME280;11272;50.104;8.754;2022-08-03T06:36:41;100531.56;;;27.86;39.13
22206;BME280;11272;50.104;8.754;2022-08-03T06:39:07;100533.75;;;28.12;38.76
22206;BME280;11272;50.104;8.754;2022-08-03T06:41:32;100532.19;;;28.38;38.57
22206;BME280;11272;50.104;8.754;2022-08-03T06:43:58;100530.56;;;28.64;37.80
22206;BME280;11272;50.104;8.754;2022-08-03T06:46:23;100533.03;;;28.86;37.37
22206;BME280;11272;50.104;8.754;2022-08-03T06:48:49;100531.81;;;29.08;37.05
22206;BME280;11272;50.104;8.754;2022-08-03T06:51:14;100525.25;;;29.28;36.75
22206;BME280;11272;50.104;8.754;2022-08-03T06:53:40;100525.22;;;29.48;36.53
22206;BME280;11272;50.104;8.754;2022-08-03T06:56:07;100528.75;;;29.58;36.15
22206;BME280;11272;50.104;8.754;2022-08-03T06:58:33;100526.59;;;29.79;35.71
22206;BME280;11272;50.104;8.754;2022-08-03T07:00:59;100527.75;;;30.04;35.31
22206;BME280;11272;50.104;8.754;2022-08-03T07:03:25;100535.03;;;30.31;35.03
22206;BME280;11272;50.104;8.754;2022-08-03T07:05:50;100531.84;;;30.53;34.59
22206;BME280;11272;50.104;8.754;2022-08-03T07:08:16;100530.16;;;30.78;34.40
22206;BME280;11272;50.104;8.754;2022-08-03T07:10:43;100539.72;;;31.00;33.92
22206;BME280;11272;50.104;8.754;2022-08-03T07:13:08;100536.63;;;31.20;33.35
22206;BME280;11272;50.104;8.754;2022-08-03T07:15:34;100535.03;;;31.44;33.06
22206;BME280;11272;50.104;8.754;2022-08-03T07:18:00;100533.13;;;31.70;32.63
22206;BME280;11272;50.104;8.754;2022-08-03T07:20:25;100538.50;;;31.96;32.28
22206;BME280;11272;50.104;8.754;2022-08-03T07:22:51;100534.66;;;32.23;31.94
22206;BME280;11272;50.104;8.754;2022-08-03T07:25:16;100535.19;;;32.50;31.54
22206;BME280;11272;50.104;8.754;2022-08-03T07:27:43;100534.38;;;32.74;31.15
22206;BME280;11272;50.104;8.754;2022-08-03T07:30:08;100538.31;;;32.96;30.65
22206;BME280;11272;50.104;8.754;2022-08-03T07:32:34;100532.91;;;33.19;30.56
22206;BME280;11272;50.104;8.754;2022-08-03T07:34:59;100527.53;;;33.41;29.89
22206;BME280;11272;50.104;8.754;2022-08-03T07:37:25;100534.84;;;33.65;29.81
22206;BME280;11272;50.104;8.754;2022-08-03T07:39:50;100536.16;;;33.77;29.45
22206;BME280;11272;50.104;8.754;2022-08-03T07:42:16;100535.53;;;33.98;29.18
22206;BME280;11272;50.104;8.754;2022-08-03T07:44:42;100527.50;;;34.19;29.13
22206;BME280;11272;50.104;8.754;2022-08-03T07:47:07;100532.53;;;34.39;28.53
22206;BME280;11272;50.104;8.754;2022-08-03T07:49:32;100532.88;;;34.58;27.89
22206;BME280;11272;50.104;8.754;2022-08-03T07:51:58;100530.13;;;34.81;27.63
22206;BME280;11272;50.104;8.754;2022-08-03T07:54:42;100529.88;;;35.05;27.76
22206;BME280;11272;50.104;8.754;2022-08-03T07:57:08;100518.94;;;35.27;27.44
22206;BME280;11272;50.104;8.754;2022-08-03T07:59:33;100525.16;;;35.43;26.96
22206;BME280;11272;50.104;8.754;2022-08-03T08:01:59;100519.41;;;35.74;26.56
22206;BME280;11272;50.104;8.754;2022-08-03T08:04:25;100519.75;;;36.01;26.16
22206;BME280;11272;50.104;8.754;2022-08-03T08:06:50;100518.81;;;36.29;25.57
22206;BME280;11272;50.104;8.754;2022-08-03T08:09:15;100511.78;;;36.55;25.45
22206;BME280;11272;50.104;8.754;2022-08-03T08:11:41;100518.34;;;36.68;24.96
22206;BME280;11272;50.104;8.754;2022-08-03T08:14:06;100511.59;;;36.78;24.38
22206;BME280;11272;50.104;8.754;2022-08-03T08:16:32;100511.34;;;37.00;24.08
22206;BME280;11272;50.104;8.754;2022-08-03T08:18:57;100506.00;;;37.27;23.97
22206;BME280;11272;50.104;8.754;2022-08-03T08:21:23;100506.84;;;37.55;23.40
22206;BME280;11272;50.104;8.754;2022-08-03T08:23:48;100505.84;;;37.76;23.04
22206;BME280;11272;50.104;8.754;2022-08-03T08:26:14;100503.31;;;37.81;22.71
22206;BME280;11272;50.104;8.754;2022-08-03T08:28:39;100505.34;;;38.07;22.65
22206;BME280;11272;50.104;8.754;2022-08-03T08:31:05;100506.47;;;38.39;22.21
22206;BME280;11272;50.104;8.754;2022-08-03T08:33:31;100495.81;;;38.68;22.16
22206;BME280;11272;50.104;8.754;2022-08-03T08:35:58;100501.38;;;38.95;21.70
22206;BME280;11272;50.104;8.754;2022-08-03T08:38:24;100496.19;;;39.25;21.36
22206;BME280;11272;50.104;8.754;2022-08-03T08:40:50;100499.13;;;39.49;21.10
22206;BME280;11272;50.104;8.754;2022-08-03T08:43:15;100497.19;;;39.56;20.83
22206;BME280;11272;50.104;8.754;2022-08-03T08:45:41;100490.13;;;39.54;20.88
22206;BME280;11272;50.104;8.754;2022-08-03T08:48:06;100491.22;;;39.53;20.92
22206;BME280;11272;50.104;8.754;2022-08-03T08:50:33;100493.72;;;39.68;20.89
22206;BME280;11272;50.104;8.754;2022-08-03T08:53:01;100486.91;;;40.02;20.27
22206;BME280;11272;50.104;8.754;2022-08-03T08:55:27;100491.44;;;40.34;19.89
22206;BME280;11272;50.104;8.754;2022-08-03T08:57:59;100484.41;;;40.56;19.39
22206;BME280;11272;50.104;8.754;2022-08-03T09:00:25;100482.31;;;40.76;19.23
22206;BME280;11272;50.104;8.754;2022-08-03T09:02:51;100485.69;;;41.03;19.42
22206;BME280;11272;50.104;8.754;2022-08-03T09:05:17;100476.22;;;41.29;18.80
22206;BME280;11272;50.104;8.754;2022-08-03T09:07:45;100477.94;;;41.48;18.69
22206;BME280;11272;50.104;8.754;2022-08-03T09:10:12;100470.50;;;41.60;18.77
22206;BME280;11272;50.104;8.754;2022-08-03T09:12:42;100479.16;;;41.89;18.06
22206;BME280;11272;50.104;8.754;2022-08-03T09:15:21;100478.28;;;42.18;17.76
22206;BME280;11272;50.104;8.754;2022-08-03T09:17:48;100473.66;;;42.42;17.56
22206;BME280;11272;50.104;8.754;2022-08-03T09:20:14;100474.06;;;42.69;17.44
22206;BME280;11272;50.104;8.754;2022-08-03T09:25:35;100467.75;;;42.97;17.05
22206;BME280;11272;50.104;8.754;2022-08-03T09:30:37;100472.69;;;42.18;17.09
22206;BME280;11272;50.104;8.754;2022-08-03T09:33:04;100469.88;;;42.48;17.11
22206;BME280;11272;50.104;8.754;2022-08-03T09:35:30;100476.75;;;42.87;17.37
22206;BME280;11272;50.104;8.754;2022-08-03T09:38:12;100466.78;;;43.14;16.79
22206;BME280;11272;50.104;8.754;2022-08-03T09:40:38;100462.13;;;43.08;16.65
22206;BME280;11272;50.104;8.754;2022-08-03T09:43:04;100465.91;;;43.02;16.77
22206;BME280;11272;50.104;8.754;2022-08-03T09:45:33;100463.97;;;42.79;16.53
22206;BME280;11272;50.104;8.754;2022-08-03T09:48:19;100455.00;;;43.01;16.83
22206;BME280;11272;50.104;8.754;2022-08-03T09:50:52;100447.75;;;43.51;16.62
22206;BME280;11272;50.104;8.754;2022-08-03T09:53:18;100447.06;;;43.73;16.01
22206;BME280;11272;50.104;8.754;2022-08-03T09:56:01;100448.38;;;43.53;16.25
22206;BME280;11272;50.104;8.754;2022-08-03T09:58:28;100440.81;;;43.82;16.09
22206;BME280;11272;50.104;8.754;2022-08-03T10:00:55;100450.69;;;44.30;15.43
22206;BME280;11272;50.104;8.754;2022-08-03T10:03:22;100439.44;;;44.75;15.51
22206;BME280;11272;50.104;8.754;2022-08-03T10:05:48;100442.28;;;45.13;15.04
22206;BME280;11272;50.104;8.754;2022-08-03T10:08:15;100439.28;;;45.42;14.86
22206;BME280;11272;50.104;8.754;2022-08-03T10:10:42;100433.88;;;45.57;14.46
22206;BME280;11272;50.104;8.754;2022-08-03T10:13:10;100435.16;;;45.71;14.56
22206;BME280;11272;50.104;8.754;2022-08-03T10:15:38;100423.72;;;45.78;14.20
22206;BME280;11272;50.104;8.754;2022-08-03T10:18:04;100431.22;;;45.94;14.35
22206;BME280;11272;50.104;8.754;2022-08-03T10:20:30;100417.78;;;46.01;13.98
22206;BME280;11272;50.104;8.754;2022-08-03T10:22:57;100423.94;;;46.25;14.01
22206;BME280;11272;50.104;8.754;2022-08-03T10:25:24;100416.63;;;46.56;14.02
22206;BME280;11272;50.104;8.754;2022-08-03T10:27:50;100421.00;;;46.78;13.71
22206;BME280;11272;50.104;8.754;2022-08-03T10:30:16;100415.25;;;46.95;13.26
22206;BME280;11272;50.104;8.754;2022-08-03T10:32:47;100408.84;;;47.10;13.23
22206;BME280;11272;50.104;8.754;2022-08-03T10:35:19;100404.50;;;46.92;13.26
22206;BME280;11272;50.104;8.754;2022-08-03T10:37:51;100395.91;;;46.35;13.40
22206;BME280;11272;50.104;8.754;2022-08-03T10:40:21;100393.00;;;46.20;13.83
22206;BME280;11272;50.104;8.754;2022-08-03T10:42:48;100391.44;;;46.39;13.60
22206;BME280;11272;50.104;8.754;2022-08-03T10:45:20;100387.44;;;46.62;13.18
22206;BME280;11272;50.104;8.754;2022-08-03T10:47:47;100391.97;;;46.68;13.35
22206;BME280;11272;50.104;8.754;2022-08-03T10:50:13;100388.53;;;46.61;13.62
22206;BME280;11272;50.104;8.754;2022-08-03T10:52:58;100376.91;;;46.89;13.15
22206;BME280;11272;50.104;8.754;2022-08-03T10:55:44;100378.72;;;47.10;13.38
22206;BME280;11272;50.104;8.754;2022-08-03T10:58:48;100374.81;;;47.21;13.12
22206;BME280;11272;50.104;8.754;2022-08-03T11:01:14;100366.19;;;47.33;12.94
22206;BME280;11272;50.104;8.754;2022-08-03T11:06:28;100363.94;;;47.45;12.58
22206;BME280;11272;50.104;8.754;2022-08-03T11:11:38;100365.53;;;47.21;12.26
22206;BME280;11272;50.104;8.754;2022-08-03T11:14:09;100347.19;;;47.13;12.62
22206;BME280;11272;50.104;8.754;2022-08-03T11:16:36;100359.69;;;47.27;12.54
22206;BME280;11272;50.104;8.754;2022-08-03T11:19:08;100345.13;;;47.66;12.48
22206;BME280;11272;50.104;8.754;2022-08-03T11:27:31;100344.63;;;48.09;12.56
22206;BME280;11272;50.104;8.754;2022-08-03T11:35:11;100334.59;;;49.08;11.50
22206;BME280;11272;50.104;8.754;2022-08-03T11:40:45;100337.28;;;49.83;11.58
22206;BME280;11272;50.104;8.754;2022-08-03T11:46:01;100332.34;;;49.59;11.56
22206;BME280;11272;50.104;8.754;2022-08-03T11:48:35;100332.75;;;49.82;10.97
22206;BME280;11272;50.104;8.754;2022-08-03T11:51:02;100320.88;;;49.85;11.10
22206;BME280;11272;50.104;8.754;2022-08-03T11:53:28;100333.28;;;49.89;10.99
22206;BME280;11272;50.104;8.754;2022-08-03T11:55:57;100324.03;;;50.12;10.93
22206;BME280;11272;50.104;8.754;2022-08-03T11:58:25;100326.00;;;50.17;11.12
22206;BME280;11272;50.104;8.754;2022-08-03T12:00:51;100327.25;;;50.29;10.83
22206;BME280;11272;50.104;8.754;2022-08-03T12:03:18;100321.91;;;50.57;10.53
22206;BME280;11272;50.104;8.754;2022-08-03T12:05:51;100316.88;;;50.53;10.59
22206;BME280;11272;50.104;8.754;2022-08-03T12:10:49;100306.50;;;50.68;10.59
22206;BME280;11272;50.104;8.754;2022-08-03T12:13:15;100312.16;;;50.68;10.83
22206;BME280;11272;50.104;8.754;2022-08-03T12:15:41;100310.31;;;50.82;10.45
22206;BME280;11272;50.104;8.754;2022-08-03T12:18:15;100306.28;;;50.88;10.49
22206;BME280;11272;50.104;8.754;2022-08-03T12:20:41;100302.38;;;50.84;10.54
22206;BME280;11272;50.104;8.754;2022-08-03T12:23:07;100303.69;;;50.91;10.49
22206;BME280;11272;50.104;8.754;2022-08-03T12:25:34;100297.72;;;50.93;10.55
22206;BME280;11272;50.104;8.754;2022-08-03T12:28:13;100292.66;;;50.90;10.45
22206;BME280;11272;50.104;8.754;2022-08-03T12:30:42;100294.72;;;50.84;10.51
22206;BME280;11272;50.104;8.754;2022-08-03T12:33:22;100290.41;;;50.87;10.42
22206;BME280;11272;50.104;8.754;2022-08-03T12:38:29;100286.16;;;51.08;10.28
22206;BME280;11272;50.104;8.754;2022-08-03T12:41:05;100282.81;;;51.06;10.03
22206;BME280;11272;50.104;8.754;2022-08-03T12:43:33;100290.97;;;50.89;10.10
22206;BME280;11272;50.104;8.754;2022-08-03T12:46:09;100289.00;;;50.89;10.25
22206;BME280;11272;50.104;8.754;2022-08-03T12:48:35;100295.00;;;50.59;9.99
22206;BME280;11272;50.104;8.754;2022-08-03T12:51:08;100287.22;;;50.46;10.57
22206;BME280;11272;50.104;8.754;2022-08-03T12:53:34;100284.34;;;50.75;10.16
22206;BME280;11272;50.104;8.754;2022-08-03T12:56:05;100280.13;;;50.96;10.20
22206;BME280;11272;50.104;8.754;2022-08-03T12:58:34;100281.75;;;50.54;10.12
22206;BME280;11272;50.104;8.754;2022-08-03T13:01:02;100280.66;;;50.50;10.31
22206;BME280;11272;50.104;8.754;2022-08-03T13:03:28;100281.16;;;50.58;9.95
22206;BME280;11272;50.104;8.754;2022-08-03T13:06:10;100276.75;;;50.46;10.03
22206;BME280;11272;50.104;8.754;2022-08-03T13:08:35;100282.50;;;50.36;9.90
22206;BME280;11272;50.104;8.754;2022-08-03T13:11:18;100278.16;;;50.20;10.08
22206;BME280;11272;50.104;8.754;2022-08-03T13:13:46;100281.66;;;50.07;10.59
22206;BME280;11272;50.104;8.754;2022-08-03T13:16:12;100281.13;;;50.05;10.45
22206;BME280;11272;50.104;8.754;2022-08-03T13:18:37;100277.22;;;50.01;10.40
22206;BME280;11272;50.104;8.754;2022-08-03T13:21:02;100273.91;;;49.89;10.51
22206;BME280;11272;50.104;8.754;2022-08-03T13:23:28;100278.00;;;49.72;10.35
22206;BME280;11272;50.104;8.754;2022-08-03T13:25:54;100268.28;;;49.89;10.47
22206;BME280;11272;50.104;8.754;2022-08-03T13:28:19;100267.47;;;50.12;10.20
22206;BME280;11272;50.104;8.754;2022-08-03T13:30:45;100259.59;;;50.38;10.36
22206;BME280;11272;50.104;8.754;2022-08-03T13:33:10;100255.13;;;50.32;10.25
22206;BME280;11272;50.104;8.754;2022-08-03T13:35:35;100267.09;;;50.24;10.47